sensor_id;sensor_type;location;lat;lon;timestamp;temperature;humidity
10249;DHT22;5169;50.560;9.714;2023-09-19T00:02:17;16.80;99.90
10249;DHT22;5169;50.560;9.714;2023-09-19T00:04:47;16.80;99.90
10249;DHT22;5169;50.560;9.714;2023-09-19T00:07:14;16.80;99.90
10249;DHT22;5169;50.560;9.714;2023-09-19T00:09:42;16.70;99.90
10249;DHT22;5169;50.560;9.714;2023-09-19T00:12:09;16.70;99.90
10249;DHT22;5169;50.560;9.714;2023-09-19T00:14:37;16.70;99.90
10249;DHT22;5169;50.560;9.714;2023-09-19T00:17:03;16.70;99.90
10249;DHT22;5169;50.560;9.714;2023-09-19T00:19:36;16.80;99.90
10249;DHT22;5169;50.560;9.714;2023-09-19T00:22:02;16.80;99.90
10249;DHT22;5169;50.560;9.714;2023-09-19T00:24:30;16.70;99.90
10249;DHT22;5169;50.560;9.714;2023-09-19T00:27:01;16.70;99.90
10249;DHT22;5169;50.560;9.714;2023-09-19T00:29:28;16.70;99.90
10249;DHT22;5169;50.560;9.714;2023-09-19T00:31:56;16.80;99.90
10249;DHT22;5169;50.560;9.714;2023-09-19T00:34:22;16.90;99.90
10249;DHT22;5169;50.560;9.714;2023-09-19T00:36:48;16.90;99.90
10249;DHT22;5169;50.560;9.714;2023-09-19T00:39:17;16.90;99.90
10249;DHT22;5169;50.560;9.714;2023-09-19T00:41:45;16.90;99.90
10249;DHT22;5169;50.560;9.714;2023-09-19T00:44:11;16.90;99.90
10249;DHT22;5169;50.560;9.714;2023-09-19T00:46:37;16.90;99.90
10249;DHT22;5169;50.560;9.714;2023-09-19T00:49:03;16.80;99.90
10249;DHT22;5169;50.560;9.714;2023-09-19T00:51:28;16.90;99.90
10249;DHT22;5169;50.560;9.714;2023-09-19T00:53:55;16.90;99.90
10249;DHT22;5169;50.560;9.714;2023-09-19T00:56:25;17.00;99.90
10249;DHT22;5169;50.560;9.714;2023-09-19T00:58:52;17.00;99.90
10249;DHT22;5169;50.560;9.714;2023-09-19T01:01:20;17.00;99.90
10249;DHT22;5169;50.560;9.714;2023-09-19T01:03:48;17.00;99.90
10249;DHT22;5169;50.560;9.714;2023-09-19T01:06:13;17.00;99.90
10249;DHT22;5169;50.560;9.714;2023-09-19T01:08:42;17.00;99.90
10249;DHT22;5169;50.560;9.714;2023-09-19T01:11:32;17.00;99.90
10249;DHT22;5169;50.560;9.714;2023-09-19T01:14:26;17.00;99.90
10249;DHT22;5169;50.560;9.714;2023-09-19T01:17:09;17.00;99.90
10249;DHT22;5169;50.560;9.714;2023-09-19T01:22:40;16.90;99.90
10249;DHT22;5169;50.560;9.714;2023-09-19T01:25:42;17.00;99.90
10249;DHT22;5169;50.560;9.714;2023-09-19T01:28:51;16.90;99.90
10249;DHT22;5169;50.560;9.714;2023-09-19T01:31:20;16.90;99.90
10249;DHT22;5169;50.560;9.714;2023-09-19T01:33:57;16.90;99.90
10249;DHT22;5169;50.560;9.714;2023-09-19T01:36:28;16.90;99.90
10249;DHT22;5169;50.560;9.714;2023-09-19T01:38:57;16.90;99.90
10249;DHT22;5169;50.560;9.714;2023-09-19T01:41:37;16.80;99.90
10249;DHT22;5169;50.560;9.714;2023-09-19T01:44:06;16.70;99.90
10249;DHT22;5169;50.560;9.714;2023-09-19T01:46:36;16.70;99.90
10249;DHT22;5169;50.560;9.714;2023-09-19T01:52:10;16.60;99.90
10249;DHT22;5169;50.560;9.714;2023-09-19T01:54:51;16.50;99.90
10249;DHT22;5169;50.560;9.714;2023-09-19T01:57:41;16.50;99.90
10249;DHT22;5169;50.560;9.714;2023-09-19T02:00:10;16.60;99.90
10249;DHT22;5169;50.560;9.714;2023-09-19T02:02:46;16.70;99.90
10249;DHT22;5169;50.560;9.714;2023-09-19T02:05:13;16.60;99.90
10249;DHT22;5169;50.560;9.714;2023-09-19T02:07:41;16.60;99.90
10249;DHT22;5169;50.560;9.714;2023-09-19T02:10:09;16.60;99.90
10249;DHT22;5169;50.560;9.714;2023-09-19T02:12:37;16.70;99.90
10249;DHT22;5169;50.560;9.714;2023-09-19T02:15:04;16.70;99.90
10249;DHT22;5169;50.560;9.714;2023-09-19T02:17:32;16.70;99.90
10249;DHT22;5169;50.560;9.714;2023-09-19T02:19:58;16.70;99.90
10249;DHT22;5169;50.560;9.714;2023-09-19T02:22:24;16.60;99.90
10249;DHT22;5169;50.560;9.714;2023-09-19T02:24:50;16.70;99.90
10249;DHT22;5169;50.560;9.714;2023-09-19T02:27:16;16.60;99.90
10249;DHT22;5169;50.560;9.714;2023-09-19T02:29:43;16.60;99.90
10249;DHT22;5169;50.560;9.714;2023-09-19T02:32:08;16.60;99.90
10249;DHT22;5169;50.560;9.714;2023-09-19T02:34:39;16.70;99.90
10249;DHT22;5169;50.560;9.714;2023-09-19T02:37:08;16.70;99.90
10249;DHT22;5169;50.560;9.714;2023-09-19T02:39:34;16.70;99.90
10249;DHT22;5169;50.560;9.714;2023-09-19T02:42:01;16.70;99.90
10249;DHT22;5169;50.560;9.714;2023-09-19T02:44:26;16.70;99.90
10249;DHT22;5169;50.560;9.714;2023-09-19T02:46:54;16.70;99.90
10249;DHT22;5169;50.560;9.714;2023-09-19T02:49:20;16.60;99.90
10249;DHT22;5169;50.560;9.714;2023-09-19T02:51:47;16.50;99.90
10249;DHT22;5169;50.560;9.714;2023-09-19T02:54:13;16.40;99.90
10249;DHT22;5169;50.560;9.714;2023-09-19T02:56:40;16.30;99.90
10249;DHT22;5169;50.560;9.714;2023-09-19T02:59:06;16.30;99.90
10249;DHT22;5169;50.560;9.714;2023-09-19T03:01:31;16.30;99.90
10249;DHT22;5169;50.560;9.714;2023-09-19T03:03:59;16.20;99.90
10249;DHT22;5169;50.560;9.714;2023-09-19T03:06:25;16.20;99.90
10249;DHT22;5169;50.560;9.714;2023-09-19T03:08:50;16.10;99.90
10249;DHT22;5169;50.560;9.714;2023-09-19T03:11:17;16.10;99.90
10249;DHT22;5169;50.560;9.714;2023-09-19T03:13:51;16.10;99.90
10249;DHT22;5169;50.560;9.714;2023-09-19T03:16:17;16.10;99.90
10249;DHT22;5169;50.560;9.714;2023-09-19T03:18:42;16.10;99.90
10249;DHT22;5169;50.560;9.714;2023-09-19T03:21:08;16.10;99.90
10249;DHT22;5169;50.560;9.714;2023-09-19T03:23:36;16.10;99.90
10249;DHT22;5169;50.560;9.714;2023-09-19T03:26:04;16.10;99.90
10249;DHT22;5169;50.560;9.714;2023-09-19T03:28:33;16.10;99.90
10249;DHT22;5169;50.560;9.714;2023-09-19T03:31:03;16.10;99.90
10249;DHT22;5169;50.560;9.714;2023-09-19T03:33:31;16.10;99.90
10249;DHT22;5169;50.560;9.714;2023-09-19T03:35:58;16.10;99.90
10249;DHT22;5169;50.560;9.714;2023-09-19T03:38:25;16.10;99.90
10249;DHT22;5169;50.560;9.714;2023-09-19T03:40:53;16.00;99.90
10249;DHT22;5169;50.560;9.714;2023-09-19T03:43:19;16.00;99.90
10249;DHT22;5169;50.560;9.714;2023-09-19T03:45:47;15.90;99.90
10249;DHT22;5169;50.560;9.714;2023-09-19T03:48:14;15.90;99.90
10249;DHT22;5169;50.560;9.714;2023-09-19T03:50:39;15.90;99.90
10249;DHT22;5169;50.560;9.714;2023-09-19T03:53:05;15.80;99.90
10249;DHT22;5169;50.560;9.714;2023-09-19T03:55:35;15.80;99.90
10249;DHT22;5169;50.560;9.714;2023-09-19T03:58:05;15.80;99.90
10249;DHT22;5169;50.560;9.714;2023-09-19T04:00:31;15.70;99.90
10249;DHT22;5169;50.560;9.714;2023-09-19T04:02:57;15.70;99.90
10249;DHT22;5169;50.560;9.714;2023-09-19T04:05:23;15.70;99.90
10249;DHT22;5169;50.560;9.714;2023-09-19T04:07:49;15.70;99.90
10249;DHT22;5169;50.560;9.714;2023-09-19T04:10:19;15.70;99.90
10249;DHT22;5169;50.560;9.714;2023-09-19T04:12:54;15.80;99.90
10249;DHT22;5169;50.560;9.714;2023-09-19T04:15:22;15.70;99.90
10249;DHT22;5169;50.560;9.714;2023-09-19T04:17:51;15.70;99.90
10249;DHT22;5169;50.560;9.714;2023-09-19T04:20:17;15.70;99.90
10249;DHT22;5169;50.560;9.714;2023-09-19T04:22:45;15.60;99.90
10249;DHT22;5169;50.560;9.714;2023-09-19T04:25:10;15.60;99.90
10249;DHT22;5169;50.560;9.714;2023-09-19T04:27:38;15.60;99.90
10249;DHT22;5169;50.560;9.714;2023-09-19T04:30:05;15.50;99.90
10249;DHT22;5169;50.560;9.714;2023-09-19T04:32:35;15.50;99.90
10249;DHT22;5169;50.560;9.714;2023-09-19T04:35:04;15.50;99.90
10249;DHT22;5169;50.560;9.714;2023-09-19T04:37:33;15.50;99.90
10249;DHT22;5169;50.560;9.714;2023-09-19T04:39:59;15.50;99.90
10249;DHT22;5169;50.560;9.714;2023-09-19T04:42:24;15.40;99.90
10249;DHT22;5169;50.560;9.714;2023-09-19T04:44:52;15.40;99.90
10249;DHT22;5169;50.560;9.714;2023-09-19T04:47:21;15.40;99.90
10249;DHT22;5169;50.560;9.714;2023-09-19T04:49:49;15.40;99.90
10249;DHT22;5169;50.560;9.714;2023-09-19T04:52:17;15.40;99.90
10249;DHT22;5169;50.560;9.714;2023-09-19T04:54:46;15.40;99.90
10249;DHT22;5169;50.560;9.714;2023-09-19T04:57:13;15.40;99.90
10249;DHT22;5169;50.560;9.714;2023-09-19T04:59:39;15.40;99.90
10249;DHT22;5169;50.560;9.714;2023-09-19T05:02:06;15.40;99.90
10249;DHT22;5169;50.560;9.714;2023-09-19T05:04:33;15.40;99.90
10249;DHT22;5169;50.560;9.714;2023-09-19T05:07:01;15.40;99.90
10249;DHT22;5169;50.560;9.714;2023-09-19T05:09:29;15.50;99.90
10249;DHT22;5169;50.560;9.714;2023-09-19T05:11:54;15.50;99.90
10249;DHT22;5169;50.560;9.714;2023-09-19T05:14:25;15.50;99.90
10249;DHT22;5169;50.560;9.714;2023-09-19T05:16:51;15.50;99.90
10249;DHT22;5169;50.560;9.714;2023-09-19T05:19:19;15.60;99.90
10249;DHT22;5169;50.560;9.714;2023-09-19T05:21:44;15.50;99.90
10249;DHT22;5169;50.560;9.714;2023-09-19T05:24:10;15.50;99.90
10249;DHT22;5169;50.560;9.714;2023-09-19T05:26:37;15.60;99.90
10249;DHT22;5169;50.560;9.714;2023-09-19T05:29:05;15.60;99.90
10249;DHT22;5169;50.560;9.714;2023-09-19T05:31:35;15.60;99.90
10249;DHT22;5169;50.560;9.714;2023-09-19T05:34:08;15.60;99.90
10249;DHT22;5169;50.560;9.714;2023-09-19T05:36:35;15.60;99.90
10249;DHT22;5169;50.560;9.714;2023-09-19T05:39:00;15.60;99.90
10249;DHT22;5169;50.560;9.714;2023-09-19T05:41:27;15.60;99.90
10249;DHT22;5169;50.560;9.714;2023-09-19T05:43:54;15.60;99.90
10249;DHT22;5169;50.560;9.714;2023-09-19T05:46:20;15.60;99.90
10249;DHT22;5169;50.560;9.714;2023-09-19T05:48:48;15.60;99.90
10249;DHT22;5169;50.560;9.714;2023-09-19T05:51:15;15.60;99.90
10249;DHT22;5169;50.560;9.714;2023-09-19T05:53:43;15.70;99.90
10249;DHT22;5169;50.560;9.714;2023-09-19T05:56:14;15.60;99.90
10249;DHT22;5169;50.560;9.714;2023-09-19T05:58:44;15.70;99.90
10249;DHT22;5169;50.560;9.714;2023-09-19T06:01:10;15.70;99.90
10249;DHT22;5169;50.560;9.714;2023-09-19T06:03:35;15.70;99.90
10249;DHT22;5169;50.560;9.714;2023-09-19T06:06:01;15.70;99.90
10249;DHT22;5169;50.560;9.714;2023-09-19T06:08:27;15.60;99.90
10249;DHT22;5169;50.560;9.714;2023-09-19T06:10:54;15.70;99.90
10249;DHT22;5169;50.560;9.714;2023-09-19T06:13:19;15.70;99.90
10249;DHT22;5169;50.560;9.714;2023-09-19T06:15:48;15.80;99.90
10249;DHT22;5169;50.560;9.714;2023-09-19T06:18:14;15.70;99.90
10249;DHT22;5169;50.560;9.714;2023-09-19T06:20:47;15.80;99.90
10249;DHT22;5169;50.560;9.714;2023-09-19T06:23:16;15.80;99.90
10249;DHT22;5169;50.560;9.714;2023-09-19T06:25:43;15.80;99.90
10249;DHT22;5169;50.560;9.714;2023-09-19T06:28:11;15.80;99.90
10249;DHT22;5169;50.560;9.714;2023-09-19T06:30:42;15.80;99.90
10249;DHT22;5169;50.560;9.714;2023-09-19T06:33:10;15.90;99.90
10249;DHT22;5169;50.560;9.714;2023-09-19T06:35:38;15.90;99.90
10249;DHT22;5169;50.560;9.714;2023-09-19T06:38:04;16.00;99.90
10249;DHT22;5169;50.560;9.714;2023-09-19T06:40:31;16.00;99.90
10249;DHT22;5169;50.560;9.714;2023-09-19T06:42:59;15.90;99.90
10249;DHT22;5169;50.560;9.714;2023-09-19T06:45:27;15.90;99.90
10249;DHT22;5169;50.560;9.714;2023-09-19T06:47:53;15.90;99.90
10249;DHT22;5169;50.560;9.714;2023-09-19T06:50:21;16.00;99.90
10249;DHT22;5169;50.560;9.714;2023-09-19T06:52:51;16.00;99.90
10249;DHT22;5169;50.560;9.714;2023-09-19T06:55:20;16.00;99.90
10249;DHT22;5169;50.560;9.714;2023-09-19T06:57:48;16.00;99.90
10249;DHT22;5169;50.560;9.714;2023-09-19T07:00:16;16.00;99.90
10249;DHT22;5169;50.560;9.714;2023-09-19T07:03:00;16.10;99.90
10249;DHT22;5169;50.560;9.714;2023-09-19T07:05:27;16.10;99.90
10249;DHT22;5169;50.560;9.714;2023-09-19T07:07:53;16.20;99.90
10249;DHT22;5169;50.560;9.714;2023-09-19T07:10:20;16.30;99.90
10249;DHT22;5169;50.560;9.714;2023-09-19T07:12:56;16.20;99.90
10249;DHT22;5169;50.560;9.714;2023-09-19T07:15:25;16.30;99.90
10249;DHT22;5169;50.560;9.714;2023-09-19T07:17:52;16.30;99.90
10249;DHT22;5169;50.560;9.714;2023-09-19T07:20:19;16.30;99.90
10249;DHT22;5169;50.560;9.714;2023-09-19T07:22:45;16.30;99.90
10249;DHT22;5169;50.560;9.714;2023-09-19T07:25:13;16.30;99.90
10249;DHT22;5169;50.560;9.714;2023-09-19T07:27:40;16.30;99.90
10249;DHT22;5169;50.560;9.714;2023-09-19T07:30:06;16.40;99.90
10249;DHT22;5169;50.560;9.714;2023-09-19T07:32:34;16.40;99.90
10249;DHT22;5169;50.560;9.714;2023-09-19T07:35:04;16.50;99.90
10249;DHT22;5169;50.560;9.714;2023-09-19T07:37:31;16.60;99.90
10249;DHT22;5169;50.560;9.714;2023-09-19T07:39:59;16.60;99.90
10249;DHT22;5169;50.560;9.714;2023-09-19T07:42:26;16.70;99.90
10249;DHT22;5169;50.560;9.714;2023-09-19T07:44:54;16.80;99.90
10249;DHT22;5169;50.560;9.714;2023-09-19T07:47:20;16.90;99.90
10249;DHT22;5169;50.560;9.714;2023-09-19T07:49:49;16.90;99.90
10249;DHT22;5169;50.560;9.714;2023-09-19T07:52:15;16.90;99.90
10249;DHT22;5169;50.560;9.714;2023-09-19T07:54:47;17.00;99.90
10249;DHT22;5169;50.560;9.714;2023-09-19T07:57:13;17.10;99.90
10249;DHT22;5169;50.560;9.714;2023-09-19T07:59:41;17.10;99.90
10249;DHT22;5169;50.560;9.714;2023-09-19T08:02:09;17.10;99.90
10249;DHT22;5169;50.560;9.714;2023-09-19T08:04:44;17.10;99.90
10249;DHT22;5169;50.560;9.714;2023-09-19T08:07:14;17.20;99.90
10249;DHT22;5169;50.560;9.714;2023-09-19T08:09:40;17.30;99.90
10249;DHT22;5169;50.560;9.714;2023-09-19T08:12:07;17.20;99.90
10249;DHT22;5169;50.560;9.714;2023-09-19T08:14:38;17.30;99.90
10249;DHT22;5169;50.560;9.714;2023-09-19T08:17:09;17.20;99.90
10249;DHT22;5169;50.560;9.714;2023-09-19T08:19:34;17.10;99.90
10249;DHT22;5169;50.560;9.714;2023-09-19T08:22:01;17.00;99.90
10249;DHT22;5169;50.560;9.714;2023-09-19T08:24:29;16.90;99.90
10249;DHT22;5169;50.560;9.714;2023-09-19T08:26:55;17.00;99.90
10249;DHT22;5169;50.560;9.714;2023-09-19T08:29:22;17.00;99.90
10249;DHT22;5169;50.560;9.714;2023-09-19T08:31:53;17.10;99.90
10249;DHT22;5169;50.560;9.714;2023-09-19T08:34:19;17.00;99.90
10249;DHT22;5169;50.560;9.714;2023-09-19T08:36:44;17.00;99.90
10249;DHT22;5169;50.560;9.714;2023-09-19T08:39:13;17.10;99.90
10249;DHT22;5169;50.560;9.714;2023-09-19T08:41:39;17.20;99.90
10249;DHT22;5169;50.560;9.714;2023-09-19T08:44:05;17.30;99.90
10249;DHT22;5169;50.560;9.714;2023-09-19T08:46:31;17.50;99.90
10249;DHT22;5169;50.560;9.714;2023-09-19T08:49:05;17.60;99.90
10249;DHT22;5169;50.560;9.714;2023-09-19T08:51:43;17.60;99.90
10249;DHT22;5169;50.560;9.714;2023-09-19T08:54:32;17.60;99.90
10249;DHT22;5169;50.560;9.714;2023-09-19T08:57:06;17.90;99.90
10249;DHT22;5169;50.560;9.714;2023-09-19T08:59:37;17.90;99.90
10249;DHT22;5169;50.560;9.714;2023-09-19T09:02:10;18.00;99.90
10249;DHT22;5169;50.560;9.714;2023-09-19T09:04:43;18.20;99.90
10249;DHT22;5169;50.560;9.714;2023-09-19T09:07:13;18.00;99.90
10249;DHT22;5169;50.560;9.714;2023-09-19T09:09:41;18.00;99.90
10249;DHT22;5169;50.560;9.714;2023-09-19T09:12:12;18.10;99.90
10249;DHT22;5169;50.560;9.714;2023-09-19T09:14:48;18.30;99.90
10249;DHT22;5169;50.560;9.714;2023-09-19T09:17:20;18.60;99.90
10249;DHT22;5169;50.560;9.714;2023-09-19T09:19:46;18.70;99.90
10249;DHT22;5169;50.560;9.714;2023-09-19T09:22:12;18.80;99.90
10249;DHT22;5169;50.560;9.714;2023-09-19T09:24:55;18.90;99.90
10249;DHT22;5169;50.560;9.714;2023-09-19T09:27:23;19.10;99.90
10249;DHT22;5169;50.560;9.714;2023-09-19T09:29:51;19.30;99.90
10249;DHT22;5169;50.560;9.714;2023-09-19T09:32:20;19.20;99.90
10249;DHT22;5169;50.560;9.714;2023-09-19T09:34:57;18.60;99.90
10249;DHT22;5169;50.560;9.714;2023-09-19T09:37:24;18.70;99.90
10249;DHT22;5169;50.560;9.714;2023-09-19T09:39:59;18.70;99.90
10249;DHT22;5169;50.560;9.714;2023-09-19T09:42:44;18.90;99.90
10249;DHT22;5169;50.560;9.714;2023-09-19T09:47:48;19.20;99.90
10249;DHT22;5169;50.560;9.714;2023-09-19T09:50:31;19.60;99.90
10249;DHT22;5169;50.560;9.714;2023-09-19T09:53:27;19.80;99.90
10249;DHT22;5169;50.560;9.714;2023-09-19T09:58:51;20.00;99.90
10249;DHT22;5169;50.560;9.714;2023-09-19T10:01:21;20.10;99.90
10249;DHT22;5169;50.560;9.714;2023-09-19T10:03:57;20.20;99.90
10249;DHT22;5169;50.560;9.714;2023-09-19T10:06:23;20.20;99.90
10249;DHT22;5169;50.560;9.714;2023-09-19T10:14:10;20.40;99.90
10249;DHT22;5169;50.560;9.714;2023-09-19T10:16:46;20.60;98.90
10249;DHT22;5169;50.560;9.714;2023-09-19T10:19:17;20.50;99.30
10249;DHT22;5169;50.560;9.714;2023-09-19T10:21:48;20.40;98.30
10249;DHT22;5169;50.560;9.714;2023-09-19T10:24:15;20.20;98.90
10249;DHT22;5169;50.560;9.714;2023-09-19T10:26:45;20.30;98.30
10249;DHT22;5169;50.560;9.714;2023-09-19T10:29:16;20.30;98.50
10249;DHT22;5169;50.560;9.714;2023-09-19T10:31:44;20.30;98.90
10249;DHT22;5169;50.560;9.714;2023-09-19T10:34:14;20.70;98.40
10249;DHT22;5169;50.560;9.714;2023-09-19T10:36:44;20.80;98.00
10249;DHT22;5169;50.560;9.714;2023-09-19T10:39:11;20.80;98.00
10249;DHT22;5169;50.560;9.714;2023-09-19T10:41:39;21.10;97.80
10249;DHT22;5169;50.560;9.714;2023-09-19T10:44:05;21.20;97.20
10249;DHT22;5169;50.560;9.714;2023-09-19T10:46:34;21.40;97.50
10249;DHT22;5169;50.560;9.714;2023-09-19T10:49:03;21.30;97.20
10249;DHT22;5169;50.560;9.714;2023-09-19T10:51:42;20.70;98.10
10249;DHT22;5169;50.560;9.714;2023-09-19T10:54:12;20.80;98.20
10249;DHT22;5169;50.560;9.714;2023-09-19T10:56:44;20.80;98.00
10249;DHT22;5169;50.560;9.714;2023-09-19T10:59:17;20.90;97.50
10249;DHT22;5169;50.560;9.714;2023-09-19T11:01:50;21.80;96.80
10249;DHT22;5169;50.560;9.714;2023-09-19T11:04:31;23.10;95.20
10249;DHT22;5169;50.560;9.714;2023-09-19T11:15:04;22.80;94.20
10249;DHT22;5169;50.560;9.714;2023-09-19T11:17:36;21.90;94.90
10249;DHT22;5169;50.560;9.714;2023-09-19T11:20:15;21.00;96.10
10249;DHT22;5169;50.560;9.714;2023-09-19T11:30:44;25.00;90.70
10249;DHT22;5169;50.560;9.714;2023-09-19T11:36:13;25.60;86.60
10249;DHT22;5169;50.560;9.714;2023-09-19T11:46:20;26.60;82.50
10249;DHT22;5169;50.560;9.714;2023-09-19T11:48:49;26.90;80.00
10249;DHT22;5169;50.560;9.714;2023-09-19T11:51:18;26.70;79.30
10249;DHT22;5169;50.560;9.714;2023-09-19T11:53:46;27.40;79.00
10249;DHT22;5169;50.560;9.714;2023-09-19T11:56:20;27.00;78.50
10249;DHT22;5169;50.560;9.714;2023-09-19T11:58:54;27.80;76.50
10249;DHT22;5169;50.560;9.714;2023-09-19T12:01:31;28.70;72.20
10249;DHT22;5169;50.560;9.714;2023-09-19T12:03:59;27.80;72.40
10249;DHT22;5169;50.560;9.714;2023-09-19T12:06:26;27.00;72.60
10249;DHT22;5169;50.560;9.714;2023-09-19T12:08:52;26.10;76.10
10249;DHT22;5169;50.560;9.714;2023-09-19T12:11:28;25.80;76.60
10249;DHT22;5169;50.560;9.714;2023-09-19T12:13:55;24.50;79.90
10249;DHT22;5169;50.560;9.714;2023-09-19T12:16:25;23.60;82.70
10249;DHT22;5169;50.560;9.714;2023-09-19T12:18:56;24.30;80.90
10249;DHT22;5169;50.560;9.714;2023-09-19T12:21:26;24.70;79.70
10249;DHT22;5169;50.560;9.714;2023-09-19T12:24:13;23.90;81.20
10249;DHT22;5169;50.560;9.714;2023-09-19T12:26:45;22.50;85.40
10249;DHT22;5169;50.560;9.714;2023-09-19T12:29:21;22.30;88.40
10249;DHT22;5169;50.560;9.714;2023-09-19T12:31:57;21.60;90.20
10249;DHT22;5169;50.560;9.714;2023-09-19T12:34:26;20.70;91.40
10249;DHT22;5169;50.560;9.714;2023-09-19T12:37:15;20.90;91.80
10249;DHT22;5169;50.560;9.714;2023-09-19T12:39:46;21.00;91.30
10249;DHT22;5169;50.560;9.714;2023-09-19T12:42:15;21.30;90.60
10249;DHT22;5169;50.560;9.714;2023-09-19T12:44:46;21.30;88.70
10249;DHT22;5169;50.560;9.714;2023-09-19T12:47:15;21.60;89.00
10249;DHT22;5169;50.560;9.714;2023-09-19T12:52:38;21.60;89.30
10249;DHT22;5169;50.560;9.714;2023-09-19T12:55:04;22.70;86.60
10249;DHT22;5169;50.560;9.714;2023-09-19T12:57:36;24.40;81.10
10249;DHT22;5169;50.560;9.714;2023-09-19T13:00:08;25.20;77.70
10249;DHT22;5169;50.560;9.714;2023-09-19T13:02:37;25.20;75.10
10249;DHT22;5169;50.560;9.714;2023-09-19T13:05:04;25.60;75.30
10249;DHT22;5169;50.560;9.714;2023-09-19T13:07:45;25.30;75.20
10249;DHT22;5169;50.560;9.714;2023-09-19T13:10:21;24.30;75.60
10249;DHT22;5169;50.560;9.714;2023-09-19T13:12:49;23.20;81.40
10249;DHT22;5169;50.560;9.714;2023-09-19T13:15:15;22.80;82.40
10249;DHT22;5169;50.560;9.714;2023-09-19T13:17:49;22.40;83.50
10249;DHT22;5169;50.560;9.714;2023-09-19T13:20:24;22.00;84.40
10249;DHT22;5169;50.560;9.714;2023-09-19T13:22:56;21.90;86.50
10249;DHT22;5169;50.560;9.714;2023-09-19T13:25:38;21.40;86.60
10249;DHT22;5169;50.560;9.714;2023-09-19T13:28:05;21.20;88.00
10249;DHT22;5169;50.560;9.714;2023-09-19T13:30:31;21.20;88.10
10249;DHT22;5169;50.560;9.714;2023-09-19T13:33:10;21.20;88.30
10249;DHT22;5169;50.560;9.714;2023-09-19T13:35:36;21.20;89.40
10249;DHT22;5169;50.560;9.714;2023-09-19T13:38:04;21.10;87.90
10249;DHT22;5169;50.560;9.714;2023-09-19T13:40:29;20.90;90.10
10249;DHT22;5169;50.560;9.714;2023-09-19T13:43:00;21.00;90.00
10249;DHT22;5169;50.560;9.714;2023-09-19T13:45:26;20.90;89.90
10249;DHT22;5169;50.560;9.714;2023-09-19T13:47:54;21.10;90.50
10249;DHT22;5169;50.560;9.714;2023-09-19T13:50:23;20.60;89.30
10249;DHT22;5169;50.560;9.714;2023-09-19T13:52:52;20.20;90.20
10249;DHT22;5169;50.560;9.714;2023-09-19T13:55:19;20.30;91.00
10249;DHT22;5169;50.560;9.714;2023-09-19T13:57:47;20.40;90.70
10249;DHT22;5169;50.560;9.714;2023-09-19T14:00:15;20.40;91.40
10249;DHT22;5169;50.560;9.714;2023-09-19T14:02:41;20.50;91.60
10249;DHT22;5169;50.560;9.714;2023-09-19T14:05:12;20.60;90.90
10249;DHT22;5169;50.560;9.714;2023-09-19T14:07:42;20.60;91.10
10249;DHT22;5169;50.560;9.714;2023-09-19T14:10:09;20.70;91.00
10249;DHT22;5169;50.560;9.714;2023-09-19T14:12:38;20.60;90.90
10249;DHT22;5169;50.560;9.714;2023-09-19T14:15:10;20.60;90.90
10249;DHT22;5169;50.560;9.714;2023-09-19T14:17:37;20.60;91.30
10249;DHT22;5169;50.560;9.714;2023-09-19T14:20:05;20.60;91.00
10249;DHT22;5169;50.560;9.714;2023-09-19T14:22:32;20.30;90.10
10249;DHT22;5169;50.560;9.714;2023-09-19T14:24:58;20.20;91.10
10249;DHT22;5169;50.560;9.714;2023-09-19T14:27:25;19.80;91.30
10249;DHT22;5169;50.560;9.714;2023-09-19T14:29:50;19.70;91.90
10249;DHT22;5169;50.560;9.714;2023-09-19T14:32:16;19.60;92.20
10249;DHT22;5169;50.560;9.714;2023-09-19T14:34:45;19.50;92.20
10249;DHT22;5169;50.560;9.714;2023-09-19T14:37:11;19.40;92.20
10249;DHT22;5169;50.560;9.714;2023-09-19T14:39:37;19.50;92.30
10249;DHT22;5169;50.560;9.714;2023-09-19T14:42:05;19.50;92.20
10249;DHT22;5169;50.560;9.714;2023-09-19T14:44:39;19.50;92.80
10249;DHT22;5169;50.560;9.714;2023-09-19T14:47:04;19.50;92.60
10249;DHT22;5169;50.560;9.714;2023-09-19T14:49:36;19.60;92.40
10249;DHT22;5169;50.560;9.714;2023-09-19T14:52:11;19.60;92.50
10249;DHT22;5169;50.560;9.714;2023-09-19T14:54:37;19.60;92.10
10249;DHT22;5169;50.560;9.714;2023-09-19T14:57:06;19.60;91.80
10249;DHT22;5169;50.560;9.714;2023-09-19T14:59:34;19.60;91.90
10249;DHT22;5169;50.560;9.714;2023-09-19T15:02:06;19.50;91.90
10249;DHT22;5169;50.560;9.714;2023-09-19T15:04:32;19.50;92.20
10249;DHT22;5169;50.560;9.714;2023-09-19T15:06:59;19.50;92.30
10249;DHT22;5169;50.560;9.714;2023-09-19T15:09:25;19.50;92.40
10249;DHT22;5169;50.560;9.714;2023-09-19T15:12:01;19.40;92.10
10249;DHT22;5169;50.560;9.714;2023-09-19T15:14:27;19.40;92.50
10249;DHT22;5169;50.560;9.714;2023-09-19T15:16:55;19.40;92.40
10249;DHT22;5169;50.560;9.714;2023-09-19T15:19:20;19.30;92.30
10249;DHT22;5169;50.560;9.714;2023-09-19T15:21:48;19.30;92.50
10249;DHT22;5169;50.560;9.714;2023-09-19T15:24:14;19.40;92.50
10249;DHT22;5169;50.560;9.714;2023-09-19T15:26:40;19.20;92.50
10249;DHT22;5169;50.560;9.714;2023-09-19T15:29:06;19.20;92.50
10249;DHT22;5169;50.560;9.714;2023-09-19T15:31:35;19.20;92.60
10249;DHT22;5169;50.560;9.714;2023-09-19T15:34:06;19.20;92.40
10249;DHT22;5169;50.560;9.714;2023-09-19T15:36:34;19.20;92.40
10249;DHT22;5169;50.560;9.714;2023-09-19T15:39:01;19.10;92.70
10249;DHT22;5169;50.560;9.714;2023-09-19T15:44:01;19.10;92.90
10249;DHT22;5169;50.560;9.714;2023-09-19T15:46:31;19.00;93.00
10249;DHT22;5169;50.560;9.714;2023-09-19T15:49:01;19.00;93.30
10249;DHT22;5169;50.560;9.714;2023-09-19T15:51:27;19.00;93.30
10249;DHT22;5169;50.560;9.714;2023-09-19T15:53:54;19.00;93.60
10249;DHT22;5169;50.560;9.714;2023-09-19T15:56:23;19.00;93.70
10249;DHT22;5169;50.560;9.714;2023-09-19T15:58:53;19.00;93.80
10249;DHT22;5169;50.560;9.714;2023-09-19T16:01:22;19.00;93.90
10249;DHT22;5169;50.560;9.714;2023-09-19T16:03:52;18.90;94.00
10249;DHT22;5169;50.560;9.714;2023-09-19T16:06:23;18.80;94.40
10249;DHT22;5169;50.560;9.714;2023-09-19T16:08:50;18.80;94.70
10249;DHT22;5169;50.560;9.714;2023-09-19T16:11:17;18.90;94.70
10249;DHT22;5169;50.560;9.714;2023-09-19T16:13:48;18.90;94.80
10249;DHT22;5169;50.560;9.714;2023-09-19T16:16:15;18.80;94.70
10249;DHT22;5169;50.560;9.714;2023-09-19T16:18:55;18.70;94.90
10249;DHT22;5169;50.560;9.714;2023-09-19T16:21:27;18.60;95.20
10249;DHT22;5169;50.560;9.714;2023-09-19T16:23:53;18.60;95.30
10249;DHT22;5169;50.560;9.714;2023-09-19T16:26:20;18.70;95.20
10249;DHT22;5169;50.560;9.714;2023-09-19T16:28:47;18.70;95.40
10249;DHT22;5169;50.560;9.714;2023-09-19T16:31:15;18.60;95.50
10249;DHT22;5169;50.560;9.714;2023-09-19T16:33:43;18.60;95.90
10249;DHT22;5169;50.560;9.714;2023-09-19T16:36:27;18.60;95.90
10249;DHT22;5169;50.560;9.714;2023-09-19T16:38:55;18.60;95.80
10249;DHT22;5169;50.560;9.714;2023-09-19T16:41:22;18.50;95.70
10249;DHT22;5169;50.560;9.714;2023-09-19T16:43:48;18.50;95.80
10249;DHT22;5169;50.560;9.714;2023-09-19T16:46:13;18.50;95.90
10249;DHT22;5169;50.560;9.714;2023-09-19T16:48:43;18.40;96.30